createdAt,value
2023-05-09T00:00:45.441Z,13.60
2023-05-09T00:03:12.763Z,13.60
2023-05-09T00:05:39.682Z,13.60
2023-05-09T00:08:06.645Z,13.60
2023-05-09T00:10:33.400Z,13.60
2023-05-09T00:13:00.936Z,13.60
2023-05-09T00:15:28.859Z,13.60
2023-05-09T00:17:55.536Z,13.60
2023-05-09T00:20:22.299Z,13.60
2023-05-09T00:22:48.929Z,13.50
2023-05-09T00:25:15.820Z,13.50
2023-05-09T00:27:42.775Z,13.50
2023-05-09T00:30:10.022Z,13.50
2023-05-09T00:32:37.103Z,13.50
2023-05-09T00:35:04.327Z,13.50
2023-05-09T00:37:31.528Z,13.50
2023-05-09T00:39:58.222Z,13.50
2023-05-09T00:42:25.009Z,13.60
2023-05-09T00:44:51.738Z,13.60
2023-05-09T00:47:18.428Z,13.60
2023-05-09T00:49:45.200Z,13.60
2023-05-09T00:52:12.000Z,13.60
2023-05-09T00:54:38.812Z,13.60
2023-05-09T00:57:05.575Z,13.60
2023-05-09T00:59:32.340Z,13.60
2023-05-09T01:01:58.988Z,13.60
2023-05-09T01:04:25.870Z,13.60
2023-05-09T01:07:15.761Z,13.50
2023-05-09T01:10:02.791Z,13.60
2023-05-09T01:12:45.799Z,13.60
2023-05-09T01:15:14.350Z,13.60
2023-05-09T01:17:50.308Z,13.50
2023-05-09T01:20:23.872Z,13.50
2023-05-09T01:23:19.628Z,13.60
2023-05-09T01:25:54.374Z,13.50
2023-05-09T01:28:42.521Z,13.50
2023-05-09T01:31:09.890Z,13.50
2023-05-09T01:33:40.480Z,13.60
2023-05-09T01:36:12.540Z,13.50
2023-05-09T01:38:40.250Z,13.50
2023-05-09T01:41:08.754Z,13.50
2023-05-09T01:43:38.063Z,13.40
2023-05-09T01:46:06.878Z,13.50
2023-05-09T01:48:36.150Z,13.40
2023-05-09T01:51:05.602Z,13.40
2023-05-09T01:53:34.379Z,13.30
2023-05-09T01:56:04.221Z,13.30
2023-05-09T01:58:33.579Z,13.30
2023-05-09T02:01:01.398Z,13.20
2023-05-09T02:03:28.618Z,13.20
2023-05-09T02:05:56.948Z,13.20
2023-05-09T02:08:24.106Z,13.10
2023-05-09T02:10:51.343Z,13.10
2023-05-09T02:13:18.196Z,13.00
2023-05-09T02:15:45.856Z,13.00
2023-05-09T02:18:13.806Z,13.00
2023-05-09T02:20:40.828Z,13.00
2023-05-09T02:23:07.700Z,12.90
2023-05-09T02:25:34.945Z,12.90
2023-05-09T02:28:02.537Z,12.80
2023-05-09T02:30:35.183Z,12.80
2023-05-09T02:33:06.279Z,12.70
2023-05-09T02:35:33.145Z,12.70
2023-05-09T02:38:00.791Z,12.70
2023-05-09T02:40:29.345Z,12.70
2023-05-09T02:42:56.710Z,12.70
2023-05-09T02:45:23.548Z,12.80
2023-05-09T02:47:50.226Z,12.90
2023-05-09T02:50:17.588Z,13.00
2023-05-09T02:52:44.353Z,13.00
2023-05-09T02:55:11.066Z,13.10
2023-05-09T02:57:37.748Z,13.10
2023-05-09T03:00:12.056Z,13.20
2023-05-09T03:02:39.347Z,13.20
2023-05-09T03:05:06.527Z,13.10
2023-05-09T03:07:33.210Z,13.10
2023-05-09T03:10:00.048Z,13.10
2023-05-09T03:12:26.766Z,13.10
2023-05-09T03:14:53.452Z,13.20
2023-05-09T03:17:21.408Z,13.20
2023-05-09T03:19:48.564Z,13.20
2023-05-09T03:22:16.014Z,13.30
2023-05-09T03:24:42.661Z,13.30
2023-05-09T03:27:09.342Z,13.30
2023-05-09T03:29:36.083Z,13.30
2023-05-09T03:32:02.795Z,13.40
2023-05-09T03:34:29.520Z,13.40
2023-05-09T03:36:57.060Z,13.40
2023-05-09T03:39:23.753Z,13.40
2023-05-09T03:41:50.520Z,13.30
2023-05-09T03:44:17.211Z,13.30
2023-05-09T03:46:43.979Z,13.40
2023-05-09T03:49:10.751Z,13.40
2023-05-09T03:51:38.540Z,13.30
2023-05-09T03:54:06.181Z,13.30
2023-05-09T03:56:32.823Z,13.30
2023-05-09T03:58:59.501Z,13.30
2023-05-09T04:01:26.639Z,13.30
2023-05-09T04:03:53.436Z,13.30
2023-05-09T04:06:20.249Z,13.20
2023-05-09T04:08:46.968Z,13.30
2023-05-09T04:11:13.703Z,13.20
2023-05-09T04:13:40.439Z,13.20
2023-05-09T04:16:07.274Z,13.20
2023-05-09T04:18:34.023Z,13.20
2023-05-09T04:21:01.040Z,13.20
2023-05-09T04:23:27.802Z,13.20
2023-05-09T04:25:56.858Z,13.20
2023-05-09T04:28:23.542Z,13.20
2023-05-09T04:30:50.820Z,13.20
2023-05-09T04:33:17.752Z,13.20
2023-05-09T04:35:44.443Z,13.20
2023-05-09T04:38:11.428Z,13.30
2023-05-09T04:40:38.142Z,13.30
2023-05-09T04:43:06.074Z,13.30
2023-05-09T04:45:32.738Z,13.30
2023-05-09T04:47:59.454Z,13.30
2023-05-09T04:50:26.174Z,13.50
2023-05-09T04:52:52.858Z,13.50
2023-05-09T04:55:19.617Z,13.50
2023-05-09T04:57:46.335Z,13.60
2023-05-09T05:00:13.691Z,13.60
2023-05-09T05:02:40.433Z,13.60
2023-05-09T05:05:12.189Z,13.60
2023-05-09T05:07:39.430Z,13.70
2023-05-09T05:10:06.692Z,13.70
2023-05-09T05:12:33.462Z,13.70
2023-05-09T05:15:00.627Z,13.80
2023-05-09T05:17:29.336Z,13.90
2023-05-09T05:19:56.230Z,14.10
2023-05-09T05:22:23.127Z,14.30
2023-05-09T05:24:49.930Z,14.50
2023-05-09T05:27:16.590Z,14.70
2023-05-09T05:29:43.300Z,14.80
2023-05-09T05:32:10.675Z,14.90
2023-05-09T05:34:39.339Z,15.00
2023-05-09T05:37:06.067Z,15.10
2023-05-09T05:39:32.737Z,15.10
2023-05-09T05:41:59.369Z,15.30
2023-05-09T05:44:26.198Z,15.50
2023-05-09T05:46:52.870Z,15.90
2023-05-09T05:49:19.554Z,16.30
2023-05-09T05:51:46.254Z,16.50
2023-05-09T05:54:12.998Z,16.40
2023-05-09T05:56:39.724Z,16.70
2023-05-09T05:59:06.611Z,16.90
2023-05-09T06:01:33.353Z,16.90
2023-05-09T06:04:00.302Z,17.00
2023-05-09T06:06:27.716Z,17.20
2023-05-09T06:08:55.364Z,17.40
2023-05-09T06:11:22.139Z,17.70
2023-05-09T06:13:48.771Z,17.60
2023-05-09T06:16:20.110Z,17.30
2023-05-09T06:18:47.910Z,17.20
2023-05-09T06:21:14.693Z,17.20
2023-05-09T06:23:51.103Z,17.10
2023-05-09T06:26:28.052Z,16.90
2023-05-09T06:28:54.705Z,16.70
2023-05-09T06:31:22.173Z,16.60
2023-05-09T06:33:50.256Z,16.20
2023-05-09T06:36:16.860Z,16.30
2023-05-09T06:38:43.506Z,16.30
2023-05-09T06:41:10.273Z,16.10
2023-05-09T06:43:37.142Z,16.40
2023-05-09T06:46:03.950Z,16.60
2023-05-09T06:48:30.792Z,16.60
2023-05-09T06:50:57.491Z,16.70
2023-05-09T06:53:24.200Z,17.00
2023-05-09T06:55:50.983Z,17.30
2023-05-09T06:58:17.643Z,17.00
2023-05-09T07:00:44.351Z,16.80
2023-05-09T07:03:11.675Z,17.20
2023-05-09T07:05:38.467Z,17.80
2023-05-09T07:08:05.427Z,18.40
2023-05-09T07:10:32.421Z,18.70
2023-05-09T07:12:59.176Z,18.40
2023-05-09T07:15:37.180Z,18.20
2023-05-09T07:18:07.048Z,18.10
2023-05-09T07:20:33.754Z,18.10
2023-05-09T07:23:00.761Z,17.70
2023-05-09T07:25:27.523Z,18.00
2023-05-09T07:27:54.199Z,18.00
2023-05-09T07:30:21.060Z,18.20
2023-05-09T07:32:47.784Z,18.20
2023-05-09T07:35:14.711Z,18.50
2023-05-09T07:37:41.561Z,18.60
2023-05-09T07:40:09.027Z,18.50
2023-05-09T07:42:35.752Z,18.80
2023-05-09T07:45:04.415Z,18.70
2023-05-09T07:47:31.094Z,18.30
2023-05-09T07:49:57.931Z,18.70
2023-05-09T07:52:24.583Z,18.40
2023-05-09T07:54:51.295Z,18.10
2023-05-09T07:57:18.396Z,17.80
2023-05-09T07:59:45.271Z,18.50
2023-05-09T08:02:12.019Z,18.80
2023-05-09T08:04:41.190Z,19.10
2023-05-09T08:07:09.027Z,18.90
2023-05-09T08:09:36.190Z,19.30
2023-05-09T08:12:02.849Z,19.60
2023-05-09T08:14:29.787Z,19.50
2023-05-09T08:16:56.432Z,19.80
2023-05-09T08:19:26.049Z,19.70
2023-05-09T08:21:53.400Z,19.70
2023-05-09T08:24:20.484Z,20.00
2023-05-09T08:26:47.309Z,20.20
2023-05-09T08:29:14.003Z,20.30
2023-05-09T08:31:41.072Z,20.20
2023-05-09T08:34:07.862Z,20.10
2023-05-09T08:36:34.599Z,19.90
2023-05-09T08:39:01.230Z,20.10
2023-05-09T08:41:28.098Z,20.30
2023-05-09T08:43:55.561Z,20.70
2023-05-09T08:46:30.970Z,20.70
2023-05-09T08:48:58.628Z,20.80
2023-05-09T08:51:25.746Z,20.80
2023-05-09T08:53:52.738Z,20.50
2023-05-09T08:56:19.582Z,20.40
2023-05-09T08:58:46.629Z,20.80
2023-05-09T09:01:14.360Z,20.70
2023-05-09T09:03:47.533Z,20.10
2023-05-09T09:06:14.438Z,19.90
2023-05-09T09:08:41.855Z,19.90
2023-05-09T09:11:13.164Z,20.10
2023-05-09T09:13:41.848Z,20.50
2023-05-09T09:16:18.259Z,20.50
2023-05-09T09:18:46.058Z,21.00
2023-05-09T09:21:16.119Z,21.20
2023-05-09T09:23:44.201Z,21.50
2023-05-09T09:26:10.974Z,21.50
2023-05-09T09:28:37.636Z,21.60
2023-05-09T09:31:23.846Z,21.90
2023-05-09T09:33:51.421Z,22.00
2023-05-09T09:36:28.095Z,21.90
2023-05-09T09:39:04.697Z,21.50
2023-05-09T09:41:39.318Z,21.40
2023-05-09T09:44:14.702Z,21.10
2023-05-09T09:46:52.371Z,21.00
2023-05-09T09:49:21.321Z,21.10
2023-05-09T09:51:58.636Z,20.90
2023-05-09T09:54:28.984Z,21.30
2023-05-09T09:56:56.501Z,21.40
2023-05-09T09:59:27.314Z,21.70
2023-05-09T10:02:07.963Z,21.60
2023-05-09T10:04:41.435Z,21.80
2023-05-09T10:07:13.567Z,21.90
2023-05-09T10:09:41.386Z,21.60
2023-05-09T10:12:08.955Z,21.10
2023-05-09T10:14:36.763Z,21.50
2023-05-09T10:17:05.436Z,21.30
2023-05-09T10:19:32.835Z,21.60
2023-05-09T10:22:04.944Z,21.50
2023-05-09T10:24:48.485Z,21.60
2023-05-09T10:27:18.033Z,21.70
2023-05-09T10:29:46.822Z,21.80
2023-05-09T10:32:27.454Z,22.00
2023-05-09T10:35:01.926Z,22.00
2023-05-09T10:37:29.853Z,21.80
2023-05-09T10:39:57.819Z,21.90
2023-05-09T10:42:25.295Z,22.10
2023-05-09T10:44:53.733Z,22.00
2023-05-09T10:47:21.546Z,21.90
2023-05-09T10:49:49.722Z,22.40
2023-05-09T10:52:17.336Z,22.60
2023-05-09T10:54:44.015Z,22.30
2023-05-09T10:57:11.181Z,22.80
2023-05-09T10:59:42.470Z,23.20
2023-05-09T11:02:19.794Z,22.60
2023-05-09T11:04:46.591Z,23.20
2023-05-09T11:07:27.346Z,23.10
2023-05-09T11:10:09.080Z,23.00
2023-05-09T11:12:58.031Z,22.80
2023-05-09T11:15:26.513Z,22.40
2023-05-09T11:18:15.320Z,22.20
2023-05-09T11:20:48.324Z,22.50
2023-05-09T11:23:25.595Z,22.40
2023-05-09T11:25:53.128Z,22.40
2023-05-09T11:28:30.581Z,22.40
2023-05-09T11:31:11.972Z,22.50
2023-05-09T11:33:39.928Z,22.60
2023-05-09T11:36:15.660Z,22.50
2023-05-09T11:38:45.498Z,22.70
2023-05-09T11:41:12.223Z,22.70
2023-05-09T11:43:39.770Z,22.70
2023-05-09T11:46:06.620Z,22.60
2023-05-09T11:48:42.561Z,22.60
2023-05-09T11:51:16.905Z,22.80
2023-05-09T11:53:50.456Z,22.90
2023-05-09T11:56:17.748Z,22.90
2023-05-09T11:58:44.523Z,22.90
2023-05-09T12:01:12.553Z,23.30
2023-05-09T12:03:44.347Z,23.20
2023-05-09T12:06:14.892Z,23.10
2023-05-09T12:08:41.761Z,23.10
2023-05-09T12:11:09.861Z,22.80
2023-05-09T12:13:44.261Z,23.00
2023-05-09T12:16:11.171Z,22.60
2023-05-09T12:18:37.880Z,22.70
2023-05-09T12:21:05.658Z,22.80
2023-05-09T12:23:35.414Z,23.00
2023-05-09T12:26:02.047Z,22.80
2023-05-09T12:28:28.825Z,22.60
2023-05-09T12:30:56.277Z,22.70
2023-05-09T12:33:23.471Z,23.10
2023-05-09T12:36:06.017Z,23.00
2023-05-09T12:38:33.063Z,22.90
2023-05-09T12:41:05.416Z,23.00
2023-05-09T12:43:33.745Z,23.00
2023-05-09T12:46:02.279Z,23.30
2023-05-09T12:48:30.353Z,23.10
2023-05-09T12:50:57.109Z,23.30
2023-05-09T12:53:30.742Z,23.50
2023-05-09T12:56:03.642Z,22.80
2023-05-09T12:58:33.645Z,23.50
2023-05-09T13:01:03.480Z,23.70
2023-05-09T13:03:37.507Z,23.60
2023-05-09T13:06:06.592Z,24.10
2023-05-09T13:08:33.323Z,23.90
2023-05-09T13:11:12.030Z,24.10
2023-05-09T13:13:42.401Z,23.90
2023-05-09T13:16:11.119Z,24.00
2023-05-09T13:18:39.364Z,24.00
2023-05-09T13:21:06.057Z,24.00
2023-05-09T13:23:32.747Z,24.20
2023-05-09T13:25:59.444Z,24.20
2023-05-09T13:28:26.099Z,23.80
2023-05-09T13:30:52.768Z,23.30
2023-05-09T13:33:25.800Z,23.20
2023-05-09T13:35:53.317Z,23.10
2023-05-09T13:38:20.249Z,22.80
2023-05-09T13:40:46.961Z,23.20
2023-05-09T13:43:13.679Z,23.30
2023-05-09T13:45:40.468Z,23.30
2023-05-09T13:48:07.140Z,23.50
2023-05-09T13:50:34.257Z,23.70
2023-05-09T13:53:00.998Z,23.30
2023-05-09T13:55:27.802Z,23.30
2023-05-09T13:57:54.890Z,22.70
2023-05-09T14:00:22.161Z,22.20
2023-05-09T14:02:48.941Z,21.60
2023-05-09T14:05:16.813Z,21.40
2023-05-09T14:07:43.713Z,21.10
2023-05-09T14:10:19.609Z,20.60
2023-05-09T14:12:47.424Z,20.40
2023-05-09T14:15:14.213Z,20.40
2023-05-09T14:17:40.961Z,20.20
2023-05-09T14:20:08.262Z,20.20
2023-05-09T14:22:35.096Z,20.20
2023-05-09T14:25:01.958Z,20.50
2023-05-09T14:27:28.776Z,20.40
2023-05-09T14:29:56.108Z,19.70
2023-05-09T14:32:22.745Z,20.00
2023-05-09T14:34:49.650Z,20.10
2023-05-09T14:37:16.853Z,20.40
2023-05-09T14:39:45.005Z,19.90
2023-05-09T14:42:13.997Z,20.30
2023-05-09T14:44:41.279Z,20.50
2023-05-09T14:47:09.703Z,20.80
2023-05-09T14:49:39.797Z,21.20
2023-05-09T14:52:06.581Z,21.40
2023-05-09T14:54:33.280Z,21.20
2023-05-09T14:57:02.003Z,21.30
2023-05-09T14:59:29.500Z,20.80
2023-05-09T15:01:56.142Z,20.50
2023-05-09T15:04:23.686Z,20.90
2023-05-09T15:06:50.573Z,21.00
2023-05-09T15:09:18.903Z,21.20
2023-05-09T15:11:48.888Z,20.90
2023-05-09T15:14:16.701Z,20.90
2023-05-09T15:16:43.804Z,20.50
2023-05-09T15:19:10.525Z,20.90
2023-05-09T15:21:37.296Z,21.20
2023-05-09T15:24:05.130Z,21.30
2023-05-09T15:26:32.079Z,21.50
2023-05-09T15:28:58.834Z,21.40
2023-05-09T15:31:25.893Z,21.50
2023-05-09T15:33:52.803Z,21.40
2023-05-09T15:36:19.452Z,21.50
2023-05-09T15:38:49.141Z,21.40
2023-05-09T15:41:16.115Z,21.50
2023-05-09T15:43:42.820Z,21.50
2023-05-09T15:46:09.640Z,21.50
2023-05-09T15:48:36.425Z,21.50
2023-05-09T15:51:04.048Z,21.40
2023-05-09T15:53:30.786Z,20.90
2023-05-09T15:55:57.489Z,20.60
2023-05-09T15:58:24.155Z,20.50
2023-05-09T16:00:50.925Z,19.90
2023-05-09T16:03:18.368Z,19.80
2023-05-09T16:05:45.380Z,19.80
2023-05-09T16:08:12.502Z,19.70
2023-05-09T16:10:39.304Z,19.50
2023-05-09T16:13:06.861Z,19.30
2023-05-09T16:15:34.028Z,19.20
2023-05-09T16:18:00.822Z,18.90
2023-05-09T16:20:27.885Z,18.80
2023-05-09T16:22:54.737Z,18.60
2023-05-09T16:25:21.527Z,18.50
2023-05-09T16:27:48.364Z,18.30
2023-05-09T16:30:16.355Z,18.40
2023-05-09T16:32:43.382Z,18.40
2023-05-09T16:35:10.543Z,18.50
2023-05-09T16:37:37.358Z,18.50
2023-05-09T16:40:04.537Z,18.50
2023-05-09T16:42:31.267Z,18.40
2023-05-09T16:44:58.060Z,18.20
2023-05-09T16:47:24.872Z,18.00
2023-05-09T16:49:51.572Z,18.00
2023-05-09T16:52:18.404Z,17.80
2023-05-09T16:54:45.281Z,17.70
2023-05-09T16:57:13.466Z,17.30
2023-05-09T16:59:40.548Z,17.00
2023-05-09T17:02:07.633Z,16.70
2023-05-09T17:04:36.746Z,16.50
2023-05-09T17:07:04.364Z,16.50
2023-05-09T17:09:31.576Z,16.40
2023-05-09T17:11:58.897Z,16.40
2023-05-09T17:14:25.725Z,16.50
2023-05-09T17:16:52.944Z,16.60
2023-05-09T17:19:23.221Z,16.50
2023-05-09T17:21:50.048Z,16.50
2023-05-09T17:24:17.201Z,16.60
2023-05-09T17:26:43.911Z,16.40
2023-05-09T17:29:10.654Z,16.40
2023-05-09T17:31:37.494Z,16.40
2023-05-09T17:34:05.500Z,16.40
2023-05-09T17:36:33.468Z,16.30
2023-05-09T17:39:00.742Z,16.30
2023-05-09T17:41:27.672Z,16.30
2023-05-09T17:43:57.245Z,16.30
2023-05-09T17:46:24.503Z,16.30
2023-05-09T17:48:51.331Z,16.30
2023-05-09T17:51:18.111Z,16.40
2023-05-09T17:53:44.901Z,16.40
2023-05-09T17:56:11.538Z,16.40
2023-05-09T17:58:38.193Z,16.40
2023-05-09T18:01:05.409Z,16.30
2023-05-09T18:03:32.680Z,16.10
2023-05-09T18:06:02.716Z,16.00
2023-05-09T18:08:29.937Z,16.00
2023-05-09T18:10:57.333Z,15.80
2023-05-09T18:13:24.363Z,15.80
2023-05-09T18:15:51.313Z,15.80
2023-05-09T18:18:18.224Z,15.80
2023-05-09T18:20:47.082Z,15.60
2023-05-09T18:23:14.944Z,15.50
2023-05-09T18:25:41.993Z,15.30
2023-05-09T18:28:09.389Z,15.10
2023-05-09T18:30:36.209Z,15.00
2023-05-09T18:33:03.095Z,14.90
2023-05-09T18:35:29.969Z,14.90
2023-05-09T18:37:56.932Z,14.80
2023-05-09T18:40:23.594Z,14.70
2023-05-09T18:42:50.343Z,14.70
2023-05-09T18:45:17.024Z,14.50
2023-05-09T18:47:43.813Z,14.50
2023-05-09T18:50:11.302Z,14.40
2023-05-09T18:52:38.396Z,14.40
2023-05-09T18:55:06.023Z,14.40
2023-05-09T18:57:33.785Z,14.30
2023-05-09T19:00:00.669Z,14.30
2023-05-09T19:02:27.380Z,14.30
2023-05-09T19:04:54.066Z,14.30
2023-05-09T19:07:20.801Z,14.30
2023-05-09T19:09:47.728Z,14.30
2023-05-09T19:12:16.377Z,14.40
2023-05-09T19:14:43.460Z,14.50
2023-05-09T19:17:10.831Z,14.50
2023-05-09T19:19:37.751Z,14.50
2023-05-09T19:22:04.881Z,14.50
2023-05-09T19:24:32.915Z,14.60
2023-05-09T19:26:59.999Z,14.60
2023-05-09T19:29:26.753Z,14.60
2023-05-09T19:31:53.425Z,14.60
2023-05-09T19:34:20.142Z,14.60
2023-05-09T19:36:46.810Z,14.60
2023-05-09T19:39:13.432Z,14.50
2023-05-09T19:41:40.852Z,14.60
2023-05-09T19:44:07.599Z,14.50
2023-05-09T19:46:35.355Z,14.50
2023-05-09T19:49:02.211Z,14.50
2023-05-09T19:51:29.594Z,14.50
2023-05-09T19:53:56.319Z,14.50
2023-05-09T19:56:23.170Z,14.50
2023-05-09T19:58:50.294Z,14.50
2023-05-09T20:01:19.005Z,14.40
2023-05-09T20:03:47.016Z,14.40
2023-05-09T20:06:14.066Z,14.40
2023-05-09T20:08:40.900Z,14.40
2023-05-09T20:11:07.879Z,14.50
2023-05-09T20:13:34.575Z,14.40
2023-05-09T20:16:02.752Z,14.30
2023-05-09T20:18:33.229Z,14.40
2023-05-09T20:21:01.433Z,14.30
2023-05-09T20:23:28.606Z,14.30
2023-05-09T20:25:56.196Z,14.30
2023-05-09T20:28:22.996Z,14.30
2023-05-09T20:30:50.109Z,14.20
2023-05-09T20:33:17.421Z,14.20
2023-05-09T20:35:44.227Z,14.20
2023-05-09T20:38:11.546Z,14.20
2023-05-09T20:40:38.452Z,14.10
2023-05-09T20:43:05.437Z,14.20
2023-05-09T20:45:32.282Z,14.10
2023-05-09T20:47:59.353Z,14.10
2023-05-09T20:50:26.114Z,14.10
2023-05-09T20:52:52.762Z,14.00
2023-05-09T20:55:19.795Z,13.90
2023-05-09T20:57:46.444Z,13.90
2023-05-09T21:00:13.883Z,14.00
2023-05-09T21:02:40.925Z,13.90
2023-05-09T21:05:08.036Z,14.00
2023-05-09T21:07:34.737Z,14.00
2023-05-09T21:10:01.509Z,14.00
2023-05-09T21:12:28.360Z,14.00
2023-05-09T21:14:55.010Z,14.00
2023-05-09T21:17:21.809Z,14.00
2023-05-09T21:19:51.466Z,13.90
2023-05-09T21:22:18.314Z,13.90
2023-05-09T21:24:45.303Z,13.90
2023-05-09T21:27:11.967Z,13.90
2023-05-09T21:29:38.676Z,13.90
2023-05-09T21:32:05.601Z,13.90
2023-05-09T21:34:32.256Z,14.00
2023-05-09T21:36:59.043Z,13.90
2023-05-09T21:39:25.641Z,13.90
2023-05-09T21:41:52.273Z,13.80
2023-05-09T21:44:18.928Z,13.80
2023-05-09T21:46:46.382Z,13.80
2023-05-09T21:49:16.539Z,13.80
2023-05-09T21:51:43.608Z,13.80
2023-05-09T21:54:11.015Z,13.80
2023-05-09T21:56:37.850Z,13.80
2023-05-09T21:59:04.639Z,13.90
2023-05-09T22:01:31.511Z,13.90
2023-05-09T22:03:58.725Z,13.80
2023-05-09T22:06:25.658Z,13.70
2023-05-09T22:08:52.401Z,13.80
2023-05-09T22:11:19.229Z,13.80
2023-05-09T22:13:45.910Z,13.80
2023-05-09T22:16:13.157Z,13.80
2023-05-09T22:18:39.814Z,13.80
2023-05-09T22:21:06.969Z,13.80
2023-05-09T22:23:33.838Z,13.80
2023-05-09T22:26:00.500Z,13.70
2023-05-09T22:28:27.222Z,13.70
2023-05-09T22:30:53.904Z,13.80
2023-05-09T22:33:20.897Z,13.80
2023-05-09T22:35:47.955Z,13.70
2023-05-09T22:38:14.730Z,13.70
2023-05-09T22:40:41.503Z,13.70
2023-05-09T22:43:08.214Z,13.80
2023-05-09T22:45:34.955Z,13.60
2023-05-09T22:48:01.738Z,13.60
2023-05-09T22:50:28.456Z,13.50
2023-05-09T22:52:55.092Z,13.40
2023-05-09T22:55:23.241Z,13.30
2023-05-09T22:57:49.915Z,13.30
2023-05-09T23:00:17.013Z,13.10
2023-05-09T23:02:43.950Z,12.90
2023-05-09T23:05:10.833Z,12.80
2023-05-09T23:07:37.675Z,12.80
2023-05-09T23:10:04.958Z,12.70
2023-05-09T23:12:31.681Z,12.70
2023-05-09T23:14:58.337Z,12.40
2023-05-09T23:17:25.015Z,12.30
2023-05-09T23:19:51.788Z,12.10
2023-05-09T23:22:18.619Z,12.10
2023-05-09T23:24:45.262Z,12.10
2023-05-09T23:27:11.956Z,12.10
2023-05-09T23:29:38.628Z,12.00
2023-05-09T23:32:05.354Z,12.00
2023-05-09T23:34:32.053Z,12.00
2023-05-09T23:36:58.717Z,11.90
2023-05-09T23:39:25.438Z,11.90
2023-05-09T23:41:52.113Z,11.90
2023-05-09T23:44:18.867Z,11.80
2023-05-09T23:46:45.597Z,11.80
2023-05-09T23:49:13.316Z,11.80
2023-05-09T23:51:40.632Z,11.80
2023-05-09T23:54:08.137Z,11.70
2023-05-09T23:56:34.830Z,11.70
2023-05-09T23:59:01.532Z,11.70
